createdAt,value
2018-06-08T00:00:10.491Z,40.67
2018-06-08T00:00:44.062Z,42.37
2018-06-08T00:01:17.782Z,40.60
2018-06-08T00:01:51.298Z,44.95
2018-06-08T00:02:24.903Z,39.20
2018-06-08T00:02:58.506Z,43.83
2018-06-08T00:03:32.116Z,43.17
2018-06-08T00:04:05.703Z,43.68
2018-06-08T00:04:39.306Z,39.33
2018-06-08T00:05:12.927Z,41.50
2018-06-08T00:05:46.446Z,43.45
2018-06-08T00:06:19.966Z,44.80
2018-06-08T00:06:53.472Z,44.60
2018-06-08T00:07:27.671Z,42.85
2018-06-08T00:08:01.230Z,46.63
2018-06-08T00:08:34.768Z,45.17
2018-06-08T00:09:09.224Z,44.40
2018-06-08T00:09:43.484Z,45.17
2018-06-08T00:10:17.141Z,42.15
2018-06-08T00:10:50.739Z,40.67
2018-06-08T00:11:24.388Z,40.65
2018-06-08T00:11:57.923Z,42.50
2018-06-08T00:12:32.119Z,42.65
2018-06-08T00:13:05.694Z,41.65
2018-06-08T00:13:39.234Z,45.38
2018-06-08T00:14:12.766Z,46.83
2018-06-08T00:14:46.979Z,41.47
2018-06-08T00:15:20.752Z,42.23
2018-06-08T00:15:54.255Z,47.08
2018-06-08T00:16:28.186Z,41.84
2018-06-08T00:17:02.105Z,48.15
2018-06-08T00:17:37.162Z,41.83
2018-06-08T00:18:10.776Z,41.63
2018-06-08T00:18:46.880Z,42.75
2018-06-08T00:19:21.055Z,41.40
2018-06-08T00:19:54.578Z,44.70
2018-06-08T00:20:29.095Z,37.62
2018-06-08T00:21:05.612Z,45.60
2018-06-08T00:21:39.259Z,43.45
2018-06-08T00:22:17.589Z,43.90
2018-06-08T00:22:51.727Z,43.68
2018-06-08T00:23:25.863Z,48.85
2018-06-08T00:24:07.952Z,45.50
2018-06-08T00:24:41.554Z,46.27
2018-06-08T00:25:15.090Z,46.18
2018-06-08T00:25:49.218Z,41.48
2018-06-08T00:26:22.848Z,43.48
2018-06-08T00:26:56.421Z,48.13
2018-06-08T00:27:30.596Z,45.70
2018-06-08T00:28:04.160Z,41.23
2018-06-08T00:28:37.724Z,43.67
2018-06-08T00:29:11.346Z,42.15
2018-06-08T00:29:44.888Z,41.58
2018-06-08T00:30:18.476Z,39.30
2018-06-08T00:30:52.062Z,43.08
2018-06-08T00:31:25.587Z,42.80
2018-06-08T00:31:59.146Z,46.68
2018-06-08T00:32:33.936Z,44.05
2018-06-08T00:33:08.219Z,41.20
2018-06-08T00:33:41.794Z,44.58
2018-06-08T00:34:15.321Z,42.27
2018-06-08T00:34:48.498Z,42.00
2018-06-08T00:35:22.090Z,44.67
2018-06-08T00:35:56.383Z,43.25
2018-06-08T00:36:30.880Z,43.78
2018-06-08T00:37:04.726Z,45.43
2018-06-08T00:37:38.343Z,46.30
2018-06-08T00:38:11.900Z,44.60
2018-06-08T00:38:45.476Z,45.75
2018-06-08T00:39:19.711Z,47.23
2018-06-08T00:39:53.963Z,45.98
2018-06-08T00:40:28.700Z,41.46
2018-06-08T00:41:02.299Z,48.58
2018-06-08T00:41:36.724Z,46.98
2018-06-08T00:42:11.590Z,45.55
2018-06-08T00:42:45.193Z,47.90
2018-06-08T00:43:18.701Z,46.83
2018-06-08T00:43:52.340Z,45.48
2018-06-08T00:44:25.973Z,50.45
2018-06-08T00:44:59.554Z,52.23
2018-06-08T00:45:33.110Z,46.30
2018-06-08T00:46:07.240Z,49.35
2018-06-08T00:46:40.801Z,43.80
2018-06-08T00:47:14.344Z,47.75
2018-06-08T00:47:48.517Z,46.65
2018-06-08T00:48:22.042Z,45.40
2018-06-08T00:48:55.608Z,48.80
2018-06-08T00:49:29.177Z,43.42
2018-06-08T00:50:03.512Z,43.02
2018-06-08T00:50:37.061Z,42.70
2018-06-08T00:51:10.644Z,44.18
2018-06-08T00:51:43.865Z,44.25
2018-06-08T00:52:17.446Z,43.55
2018-06-08T00:52:51.608Z,39.80
2018-06-08T00:53:25.682Z,45.15
2018-06-08T00:54:00.238Z,47.25
2018-06-08T00:54:34.187Z,45.83
2018-06-08T00:55:07.722Z,45.00
2018-06-08T00:55:41.309Z,45.15
2018-06-08T00:56:25.869Z,43.17
2018-06-08T00:57:07.052Z,50.70
2018-06-08T00:57:40.858Z,46.77
2018-06-08T00:58:15.801Z,50.08
2018-06-08T00:58:49.416Z,48.42
2018-06-08T00:59:23.444Z,43.17
2018-06-08T00:59:57.133Z,52.33
2018-06-08T01:00:31.212Z,43.68
2018-06-08T01:01:04.747Z,49.90
2018-06-08T01:01:38.383Z,47.27
2018-06-08T01:02:11.928Z,44.38
2018-06-08T01:02:45.470Z,51.33
2018-06-08T01:03:19.048Z,47.08
2018-06-08T01:03:52.543Z,49.25
2018-06-08T01:04:26.138Z,48.23
2018-06-08T01:04:59.713Z,49.60
2018-06-08T01:05:33.338Z,46.88
2018-06-08T01:06:06.932Z,47.83
2018-06-08T01:06:46.121Z,51.60
2018-06-08T01:07:19.902Z,51.00
2018-06-08T01:07:57.188Z,45.85
2018-06-08T01:08:30.707Z,45.15
2018-06-08T01:09:08.498Z,47.20
2018-06-08T01:09:42.512Z,46.77
2018-06-08T01:10:16.083Z,47.93
2018-06-08T01:10:49.600Z,47.55
2018-06-08T01:11:23.337Z,48.48
2018-06-08T01:11:56.980Z,55.70
2018-06-08T01:12:30.529Z,50.52
2018-06-08T01:13:04.050Z,47.80
2018-06-08T01:13:37.563Z,53.92
2018-06-08T01:14:11.108Z,46.85
2018-06-08T01:14:44.313Z,49.70
2018-06-08T01:15:18.114Z,50.40
2018-06-08T01:15:52.342Z,45.30
2018-06-08T01:16:25.910Z,48.20
2018-06-08T01:17:00.296Z,49.90
2018-06-08T01:17:33.974Z,48.00
2018-06-08T01:18:08.297Z,48.95
2018-06-08T01:18:41.839Z,46.50
2018-06-08T01:19:15.427Z,46.25
2018-06-08T01:19:49.736Z,48.28
2018-06-08T01:20:23.248Z,50.38
2018-06-08T01:20:57.578Z,52.17
2018-06-08T01:21:31.190Z,49.55
2018-06-08T01:22:04.733Z,50.90
2018-06-08T01:22:38.335Z,49.00
2018-06-08T01:23:11.860Z,47.40
2018-06-08T01:23:45.408Z,52.62
2018-06-08T01:24:19.841Z,49.13
2018-06-08T01:24:53.672Z,52.70
2018-06-08T01:25:28.851Z,52.33
2018-06-08T01:26:02.412Z,52.65
2018-06-08T01:26:36.799Z,57.03
2018-06-08T01:27:10.609Z,50.65
2018-06-08T01:27:44.187Z,51.83
2018-06-08T01:28:17.736Z,52.40
2018-06-08T01:28:52.502Z,56.55
2018-06-08T01:29:26.180Z,54.33
2018-06-08T01:30:00.910Z,51.58
2018-06-08T01:30:35.656Z,50.57
2018-06-08T01:31:09.232Z,53.65
2018-06-08T01:31:42.849Z,54.93
2018-06-08T01:32:16.422Z,55.08
2018-06-08T01:32:50.607Z,55.10
2018-06-08T01:33:24.182Z,50.55
2018-06-08T01:33:57.764Z,51.63
2018-06-08T01:34:32.295Z,54.75
2018-06-08T01:35:06.087Z,49.30
2018-06-08T01:35:40.239Z,53.02
2018-06-08T01:36:13.784Z,50.20
2018-06-08T01:36:48.375Z,52.50
2018-06-08T01:37:21.929Z,54.90
2018-06-08T01:37:55.503Z,56.68
2018-06-08T01:38:29.090Z,51.65
2018-06-08T01:39:02.710Z,53.87
2018-06-08T01:39:36.231Z,55.40
2018-06-08T01:40:09.756Z,54.42
2018-06-08T01:40:43.328Z,52.63
2018-06-08T01:41:16.924Z,59.00
2018-06-08T01:41:50.511Z,54.65
2018-06-08T01:42:24.036Z,54.75
2018-06-08T01:42:57.835Z,53.87
2018-06-08T01:43:31.366Z,59.55
2018-06-08T01:44:08.256Z,54.85
2018-06-08T01:44:44.186Z,53.27
2018-06-08T01:45:18.328Z,56.33
2018-06-08T01:45:51.980Z,49.80
2018-06-08T01:46:25.528Z,54.65
2018-06-08T01:46:59.577Z,53.92
2018-06-08T01:47:33.116Z,55.03
2018-06-08T01:48:11.442Z,55.23
2018-06-08T01:48:46.827Z,55.27
2018-06-08T01:49:20.386Z,54.63
2018-06-08T01:49:53.961Z,59.27
2018-06-08T01:50:28.102Z,53.73
2018-06-08T01:51:02.221Z,52.35
2018-06-08T01:51:35.827Z,55.75
2018-06-08T01:52:09.772Z,53.45
2018-06-08T01:52:43.288Z,56.00
2018-06-08T01:53:16.862Z,52.25
2018-06-08T01:53:50.440Z,53.23
2018-06-08T01:54:24.000Z,57.73
2018-06-08T01:54:57.815Z,47.78
2018-06-08T01:55:31.594Z,55.45
2018-06-08T01:56:05.116Z,59.88
2018-06-08T01:56:38.736Z,56.97
2018-06-08T01:57:12.266Z,50.67
2018-06-08T01:57:45.829Z,52.93
2018-06-08T01:58:20.084Z,56.15
2018-06-08T01:58:53.627Z,62.90
2018-06-08T01:59:27.167Z,57.08
2018-06-08T02:00:00.712Z,51.75
2018-06-08T02:00:34.336Z,54.27
2018-06-08T02:01:07.915Z,55.23
2018-06-08T02:01:41.475Z,59.90
2018-06-08T02:02:14.966Z,56.65
2018-06-08T02:02:48.511Z,57.03
2018-06-08T02:03:23.431Z,51.63
2018-06-08T02:03:56.979Z,57.90
2018-06-08T02:04:30.566Z,60.85
2018-06-08T02:05:04.171Z,57.33
2018-06-08T02:05:37.718Z,56.73
2018-06-08T02:06:11.987Z,61.77
2018-06-08T02:06:45.560Z,55.92
2018-06-08T02:07:19.098Z,53.35
2018-06-08T02:07:52.635Z,51.63
2018-06-08T02:08:28.626Z,53.98
2018-06-08T02:09:02.250Z,52.40
2018-06-08T02:09:35.885Z,56.35
2018-06-08T02:10:09.911Z,53.63
2018-06-08T02:10:43.512Z,54.55
2018-06-08T02:11:17.067Z,53.30
2018-06-08T02:11:50.664Z,50.50
2018-06-08T02:12:24.764Z,54.60
2018-06-08T02:12:58.241Z,59.63
2018-06-08T02:13:31.798Z,53.45
2018-06-08T02:14:05.387Z,55.05
2018-06-08T02:14:38.598Z,56.40
2018-06-08T02:15:12.204Z,55.15
2018-06-08T02:15:45.763Z,55.63
2018-06-08T02:16:19.318Z,53.15
2018-06-08T02:16:52.835Z,53.35
2018-06-08T02:17:26.420Z,55.15
2018-06-08T02:18:02.252Z,53.55
2018-06-08T02:18:35.529Z,57.20
2018-06-08T02:19:09.148Z,54.33
2018-06-08T02:19:42.702Z,46.53
2018-06-08T02:20:15.909Z,51.63
2018-06-08T02:20:50.183Z,50.30
2018-06-08T02:21:23.702Z,56.10
2018-06-08T02:21:57.289Z,50.50
2018-06-08T02:22:30.892Z,52.75
2018-06-08T02:23:04.933Z,56.80
2018-06-08T02:23:38.514Z,55.90
2018-06-08T02:24:12.387Z,52.10
2018-06-08T02:24:45.949Z,54.33
2018-06-08T02:25:19.781Z,50.55
2018-06-08T02:25:53.287Z,51.65
2018-06-08T02:26:27.661Z,56.18
2018-06-08T02:27:03.419Z,53.13
2018-06-08T02:27:39.572Z,54.18
2018-06-08T02:28:13.991Z,56.20
2018-06-08T02:28:50.888Z,56.35
2018-06-08T02:29:24.420Z,57.17
2018-06-08T02:29:57.907Z,54.27
2018-06-08T02:30:31.496Z,55.50
2018-06-08T02:31:05.073Z,57.85
2018-06-08T02:31:38.661Z,57.90
2018-06-08T02:32:12.254Z,56.15
2018-06-08T02:32:45.795Z,54.40
2018-06-08T02:33:19.542Z,53.78
2018-06-08T02:33:53.643Z,66.05
2018-06-08T02:34:27.282Z,57.75
2018-06-08T02:35:00.934Z,53.00
2018-06-08T02:35:34.492Z,62.10
2018-06-08T02:36:08.043Z,57.55
2018-06-08T02:36:41.640Z,54.93
2018-06-08T02:37:15.195Z,60.60
2018-06-08T02:37:49.383Z,59.20
2018-06-08T02:38:22.935Z,56.50
2018-06-08T02:38:56.539Z,59.27
2018-06-08T02:39:30.047Z,59.48
2018-06-08T02:40:04.236Z,54.93
2018-06-08T02:40:37.811Z,56.87
2018-06-08T02:41:11.368Z,59.33
2018-06-08T02:41:44.940Z,58.95
2018-06-08T02:42:19.093Z,59.33
2018-06-08T02:42:52.642Z,51.73
2018-06-08T02:43:26.181Z,53.95
2018-06-08T02:43:59.439Z,56.92
2018-06-08T02:44:32.977Z,62.43
2018-06-08T02:45:06.770Z,68.40
2018-06-08T02:45:40.872Z,61.92
2018-06-08T02:46:14.533Z,71.05
2018-06-08T02:46:48.891Z,69.85
2018-06-08T02:47:22.495Z,62.88
2018-06-08T02:47:56.034Z,66.45
2018-06-08T02:48:30.208Z,66.85
2018-06-08T02:49:03.799Z,77.92
2018-06-08T02:49:37.443Z,64.80
2018-06-08T02:50:11.622Z,68.02
2018-06-08T02:50:45.786Z,67.10
2018-06-08T02:51:19.439Z,61.20
2018-06-08T02:51:53.095Z,66.53
2018-06-08T02:52:27.481Z,66.50
2018-06-08T02:53:00.663Z,65.90
2018-06-08T02:53:34.230Z,68.20
2018-06-08T02:54:08.906Z,69.77
2018-06-08T02:54:43.198Z,72.03
2018-06-08T02:55:16.748Z,73.42
2018-06-08T02:55:50.312Z,74.67
2018-06-08T02:56:23.890Z,77.95
2018-06-08T02:56:58.121Z,73.47
2018-06-08T02:57:31.345Z,72.95
2018-06-08T02:58:04.903Z,71.17
2018-06-08T02:58:38.450Z,73.17
2018-06-08T02:59:12.305Z,73.65
2018-06-08T02:59:46.001Z,76.22
2018-06-08T03:00:20.179Z,74.58
2018-06-08T03:00:53.731Z,74.77
2018-06-08T03:01:28.138Z,75.72
2018-06-08T03:02:01.719Z,69.25
2018-06-08T03:02:35.315Z,72.23
2018-06-08T03:03:09.507Z,68.20
2018-06-08T03:03:43.051Z,75.50
2018-06-08T03:04:17.568Z,78.60
2018-06-08T03:04:51.819Z,70.30
2018-06-08T03:05:26.184Z,65.67
2018-06-08T03:05:59.701Z,69.60
2018-06-08T03:06:33.254Z,71.22
2018-06-08T03:07:07.356Z,67.47
2018-06-08T03:07:41.876Z,74.00
2018-06-08T03:08:15.448Z,71.53
2018-06-08T03:08:49.744Z,66.47
2018-06-08T03:09:24.436Z,71.35
2018-06-08T03:09:58.604Z,64.80
2018-06-08T03:10:32.103Z,68.02
2018-06-08T03:11:05.680Z,67.22
2018-06-08T03:11:39.314Z,71.25
2018-06-08T03:12:12.894Z,66.33
2018-06-08T03:12:46.424Z,65.90
2018-06-08T03:13:19.966Z,64.10
2018-06-08T03:13:53.468Z,66.40
2018-06-08T03:14:27.098Z,68.95
2018-06-08T03:15:00.619Z,66.50
2018-06-08T03:15:34.112Z,62.88
2018-06-08T03:16:07.607Z,63.35
2018-06-08T03:16:41.151Z,66.13
2018-06-08T03:17:14.743Z,65.55
2018-06-08T03:17:48.309Z,67.60
2018-06-08T03:18:21.846Z,62.58
2018-06-08T03:18:55.348Z,62.48
2018-06-08T03:19:28.931Z,62.88
2018-06-08T03:20:02.581Z,69.47
2018-06-08T03:20:36.835Z,64.40
2018-06-08T03:21:10.408Z,62.55
2018-06-08T03:21:43.955Z,62.25
2018-06-08T03:22:17.507Z,60.48
2018-06-08T03:22:51.128Z,57.43
2018-06-08T03:23:24.728Z,59.75
2018-06-08T03:23:58.228Z,61.88
2018-06-08T03:24:32.556Z,57.23
2018-06-08T03:25:06.276Z,58.65
2018-06-08T03:25:39.863Z,56.73
2018-06-08T03:26:13.421Z,56.77
2018-06-08T03:26:46.962Z,60.30
2018-06-08T03:27:20.513Z,61.42
2018-06-08T03:27:54.040Z,57.78
2018-06-08T03:28:29.199Z,56.20
2018-06-08T03:29:02.690Z,52.17
2018-06-08T03:29:36.231Z,52.93
2018-06-08T03:30:09.792Z,54.38
2018-06-08T03:30:43.429Z,55.53
2018-06-08T03:31:16.966Z,56.58
2018-06-08T03:31:50.571Z,55.28
2018-06-08T03:32:24.166Z,54.05
2018-06-08T03:32:57.687Z,54.55
2018-06-08T03:33:31.785Z,56.02
2018-06-08T03:34:05.906Z,54.58
2018-06-08T03:34:39.462Z,57.17
2018-06-08T03:35:13.037Z,55.38
2018-06-08T03:35:47.281Z,48.58
2018-06-08T03:36:20.871Z,52.00
2018-06-08T03:36:54.374Z,52.43
2018-06-08T03:37:27.863Z,51.85
2018-06-08T03:38:02.090Z,47.75
2018-06-08T03:38:35.649Z,48.42
2018-06-08T03:39:09.200Z,46.00
2018-06-08T03:39:42.771Z,46.83
2018-06-08T03:40:16.329Z,49.53
2018-06-08T03:40:50.425Z,49.10
2018-06-08T03:41:23.972Z,46.37
2018-06-08T03:41:58.275Z,44.13
2018-06-08T03:42:31.894Z,40.50
2018-06-08T03:43:05.608Z,42.58
2018-06-08T03:43:39.190Z,40.45
2018-06-08T03:44:12.728Z,40.10
2018-06-08T03:44:46.310Z,44.93
2018-06-08T03:45:19.867Z,42.55
2018-06-08T03:45:53.390Z,44.15
2018-06-08T03:46:27.510Z,39.83
2018-06-08T03:47:01.622Z,41.63
2018-06-08T03:47:35.156Z,42.75
2018-06-08T03:48:08.914Z,37.95
2018-06-08T03:48:42.467Z,36.60
2018-06-08T03:49:16.739Z,40.15
2018-06-08T03:49:50.256Z,42.20
2018-06-08T03:50:23.819Z,43.17
2018-06-08T03:50:57.365Z,39.75
2018-06-08T03:51:30.943Z,40.48
2018-06-08T03:52:05.065Z,42.00
2018-06-08T03:52:38.630Z,42.27
2018-06-08T03:53:12.938Z,43.15
2018-06-08T03:53:46.508Z,41.35
2018-06-08T03:54:20.088Z,39.30
2018-06-08T03:54:53.665Z,44.15
2018-06-08T03:55:27.225Z,39.58
2018-06-08T03:56:02.319Z,37.28
2018-06-08T03:56:36.426Z,37.23
2018-06-08T03:57:10.036Z,41.18
2018-06-08T03:57:44.179Z,40.25
2018-06-08T03:58:17.778Z,38.50
2018-06-08T03:58:51.291Z,40.10
2018-06-08T03:59:24.840Z,38.00
2018-06-08T03:59:58.416Z,39.67
2018-06-08T04:00:31.985Z,38.67
2018-06-08T04:01:06.197Z,41.08
2018-06-08T04:01:39.735Z,38.85
2018-06-08T04:02:13.297Z,40.43
2018-06-08T04:02:46.870Z,41.28
2018-06-08T04:03:20.460Z,40.20
2018-06-08T04:03:55.979Z,37.45
2018-06-08T04:04:29.571Z,41.98
2018-06-08T04:05:03.106Z,40.00
2018-06-08T04:05:36.650Z,35.48
2018-06-08T04:06:10.182Z,37.33
2018-06-08T04:06:43.697Z,39.65
2018-06-08T04:07:17.293Z,35.33
2018-06-08T04:07:50.843Z,34.92
2018-06-08T04:08:24.467Z,30.80
2018-06-08T04:08:57.976Z,30.45
2018-06-08T04:09:31.578Z,30.08
2018-06-08T04:10:05.361Z,34.55
2018-06-08T04:10:39.516Z,29.93
2018-06-08T04:11:13.578Z,28.40
2018-06-08T04:11:47.120Z,27.22
2018-06-08T04:12:20.651Z,29.12
2018-06-08T04:12:54.203Z,28.12
2018-06-08T04:13:27.779Z,28.70
2018-06-08T04:14:01.970Z,27.67
2018-06-08T04:14:36.305Z,26.30
2018-06-08T04:15:09.819Z,27.82
2018-06-08T04:15:43.398Z,28.90
2018-06-08T04:16:16.975Z,29.48
2018-06-08T04:16:51.172Z,24.87
2018-06-08T04:17:25.707Z,24.77
2018-06-08T04:17:59.283Z,26.40
2018-06-08T04:18:32.835Z,29.75
2018-06-08T04:19:06.690Z,28.10
2018-06-08T04:19:41.004Z,29.72
2018-06-08T04:20:14.259Z,25.85
2018-06-08T04:20:47.836Z,26.93
2018-06-08T04:21:21.794Z,26.65
2018-06-08T04:21:55.289Z,25.62
2018-06-08T04:22:28.842Z,25.00
2018-06-08T04:23:02.426Z,28.02
2018-06-08T04:23:35.959Z,28.38
2018-06-08T04:24:09.528Z,25.32
2018-06-08T04:24:43.116Z,26.43
2018-06-08T04:25:16.674Z,28.07
2018-06-08T04:25:50.224Z,27.00
2018-06-08T04:26:23.756Z,24.87
2018-06-08T04:26:57.347Z,24.80
2018-06-08T04:27:30.927Z,24.43
2018-06-08T04:28:04.528Z,30.70
2018-06-08T04:28:38.565Z,27.10
2018-06-08T04:29:12.151Z,24.30
2018-06-08T04:29:46.311Z,23.45
2018-06-08T04:30:19.887Z,21.27
2018-06-08T04:30:53.467Z,21.65
2018-06-08T04:31:26.706Z,20.52
2018-06-08T04:32:00.326Z,21.60
2018-06-08T04:32:33.925Z,22.07
2018-06-08T04:33:07.244Z,21.00
2018-06-08T04:33:40.753Z,20.35
2018-06-08T04:34:14.371Z,19.55
2018-06-08T04:34:47.970Z,19.48
2018-06-08T04:35:21.522Z,19.62
2018-06-08T04:35:55.103Z,19.75
2018-06-08T04:36:28.332Z,20.37
2018-06-08T04:37:01.560Z,19.35
2018-06-08T04:37:35.165Z,21.05
2018-06-08T04:38:08.706Z,19.80
2018-06-08T04:38:42.293Z,19.70
2018-06-08T04:39:15.839Z,19.73
2018-06-08T04:39:49.456Z,19.25
2018-06-08T04:40:23.024Z,20.35
2018-06-08T04:40:56.603Z,21.48
2018-06-08T04:41:30.160Z,19.25
2018-06-08T04:42:03.784Z,19.87
2018-06-08T04:42:37.364Z,17.93
2018-06-08T04:43:10.916Z,18.00
2018-06-08T04:43:45.199Z,18.75
2018-06-08T04:44:18.758Z,21.10
2018-06-08T04:44:52.328Z,20.08
2018-06-08T04:45:25.924Z,19.57
2018-06-08T04:45:59.464Z,18.70
2018-06-08T04:46:33.062Z,18.32
2018-06-08T04:47:06.984Z,18.37
2018-06-08T04:47:40.605Z,18.65
2018-06-08T04:48:14.163Z,19.90
2018-06-08T04:48:48.479Z,18.45
2018-06-08T04:49:21.997Z,18.70
2018-06-08T04:49:55.531Z,19.12
2018-06-08T04:50:29.099Z,20.50
2018-06-08T04:51:02.633Z,19.80
2018-06-08T04:51:36.208Z,18.85
2018-06-08T04:52:09.776Z,18.98
2018-06-08T04:52:44.311Z,19.10
2018-06-08T04:53:17.527Z,19.10
2018-06-08T04:53:51.064Z,19.80
2018-06-08T04:54:25.180Z,20.75
2018-06-08T04:54:58.735Z,19.42
2018-06-08T04:55:33.017Z,19.77
2018-06-08T04:56:06.603Z,19.00
2018-06-08T04:56:40.149Z,20.23
2018-06-08T04:57:13.718Z,20.72
2018-06-08T04:57:47.277Z,18.95
2018-06-08T04:58:21.594Z,19.98
2018-06-08T04:58:55.171Z,20.62
2018-06-08T04:59:29.328Z,19.00
2018-06-08T05:00:03.590Z,19.98
2018-06-08T05:00:37.103Z,20.80
2018-06-08T05:01:10.340Z,20.27
2018-06-08T05:01:43.859Z,21.48
2018-06-08T05:02:17.370Z,20.60
2018-06-08T05:02:50.952Z,21.15
2018-06-08T05:03:24.514Z,23.30
2018-06-08T05:03:58.091Z,20.57
2018-06-08T05:04:31.628Z,21.25
2018-06-08T05:05:06.048Z,20.75
2018-06-08T05:05:39.574Z,23.10
2018-06-08T05:06:13.115Z,20.50
2018-06-08T05:06:47.145Z,19.80
2018-06-08T05:07:21.392Z,20.30
2018-06-08T05:07:55.435Z,24.07
2018-06-08T05:08:28.978Z,20.62
2018-06-08T05:09:02.639Z,19.15
2018-06-08T05:09:36.155Z,20.17
2018-06-08T05:10:09.716Z,19.62
2018-06-08T05:10:43.267Z,20.07
2018-06-08T05:11:17.446Z,19.25
2018-06-08T05:11:51.019Z,20.40
2018-06-08T05:12:24.557Z,21.62
2018-06-08T05:12:58.104Z,20.57
2018-06-08T05:13:31.641Z,21.05
2018-06-08T05:14:06.070Z,20.08
2018-06-08T05:14:39.596Z,19.80
2018-06-08T05:15:13.843Z,20.88
2018-06-08T05:15:47.347Z,23.70
2018-06-08T05:16:20.541Z,22.90
2018-06-08T05:16:54.098Z,20.25
2018-06-08T05:17:27.629Z,20.52
2018-06-08T05:18:01.192Z,19.98
2018-06-08T05:18:34.781Z,21.03
2018-06-08T05:19:09.032Z,19.98
2018-06-08T05:19:43.139Z,21.48
2018-06-08T05:20:16.708Z,20.90
2018-06-08T05:20:50.464Z,22.52
2018-06-08T05:21:23.992Z,21.07
2018-06-08T05:21:57.580Z,21.07
2018-06-08T05:22:31.343Z,22.10
2018-06-08T05:23:05.518Z,21.07
2018-06-08T05:23:39.090Z,20.43
2018-06-08T05:24:12.699Z,21.60
2018-06-08T05:24:46.219Z,21.33
2018-06-08T05:25:19.909Z,21.50
2018-06-08T05:25:54.039Z,21.50
2018-06-08T05:26:27.744Z,22.17
2018-06-08T05:27:01.993Z,20.57
2018-06-08T05:27:35.559Z,23.50
2018-06-08T05:28:09.123Z,21.15
2018-06-08T05:28:42.703Z,24.52
2018-06-08T05:29:16.284Z,22.62
2018-06-08T05:29:49.836Z,22.07
2018-06-08T05:30:25.468Z,21.85
2018-06-08T05:30:58.974Z,23.67
2018-06-08T05:31:32.479Z,24.07
2018-06-08T05:32:06.051Z,20.35
2018-06-08T05:32:39.900Z,23.05
2018-06-08T05:33:13.461Z,21.40
2018-06-08T05:33:47.007Z,22.22
2018-06-08T05:34:21.179Z,21.95
2018-06-08T05:34:54.734Z,23.02
2018-06-08T05:35:28.349Z,21.50
2018-06-08T05:36:01.913Z,20.75
2018-06-08T05:36:35.496Z,22.67
2018-06-08T05:37:09.152Z,20.92
2018-06-08T05:37:42.713Z,20.65
2018-06-08T05:38:16.314Z,20.60
2018-06-08T05:38:49.872Z,20.95
2018-06-08T05:39:23.445Z,22.98
2018-06-08T05:39:57.052Z,21.85
2018-06-08T05:40:30.591Z,21.93
2018-06-08T05:41:04.158Z,21.52
2018-06-08T05:41:37.955Z,23.07
2018-06-08T05:42:11.536Z,22.17
2018-06-08T05:42:45.144Z,23.73
2018-06-08T05:43:18.748Z,22.65
2018-06-08T05:43:52.360Z,20.30
2018-06-08T05:44:25.970Z,20.20
2018-06-08T05:44:59.567Z,21.62
2018-06-08T05:45:33.115Z,21.45
2018-06-08T05:46:06.675Z,21.97
2018-06-08T05:46:40.231Z,19.17
2018-06-08T05:47:13.795Z,19.65
2018-06-08T05:47:47.349Z,20.08
2018-06-08T05:48:21.003Z,20.05
2018-06-08T05:48:54.448Z,19.35
2018-06-08T05:49:27.608Z,21.48
2018-06-08T05:50:01.176Z,20.30
2018-06-08T05:50:34.796Z,20.20
2018-06-08T05:51:08.347Z,19.65
2018-06-08T05:51:41.864Z,19.55
2018-06-08T05:52:15.371Z,19.62
2018-06-08T05:52:48.945Z,20.25
2018-06-08T05:53:22.500Z,21.20
2018-06-08T05:53:55.995Z,21.65
2018-06-08T05:54:29.511Z,20.08
2018-06-08T05:55:03.117Z,22.60
2018-06-08T05:55:36.674Z,19.92
2018-06-08T05:56:10.252Z,23.47
2018-06-08T05:56:43.832Z,20.67
2018-06-08T05:57:18.059Z,20.97
2018-06-08T05:57:51.622Z,21.17
2018-06-08T05:58:25.139Z,20.05
2018-06-08T05:58:58.709Z,21.42
2018-06-08T05:59:32.258Z,23.92
2018-06-08T06:00:05.920Z,20.15
2018-06-08T06:00:39.511Z,21.03
2018-06-08T06:01:13.055Z,19.62
2018-06-08T06:01:46.210Z,20.12
2018-06-08T06:02:19.750Z,19.50
2018-06-08T06:02:53.326Z,20.10
2018-06-08T06:03:26.868Z,19.82
2018-06-08T06:04:00.402Z,21.52
2018-06-08T06:04:34.720Z,19.50
2018-06-08T06:05:08.860Z,21.35
2018-06-08T06:05:42.394Z,19.87
2018-06-08T06:06:15.963Z,19.42
2018-06-08T06:06:49.481Z,20.23
2018-06-08T06:07:23.157Z,20.15
2018-06-08T06:07:56.715Z,21.12
2018-06-08T06:08:30.245Z,21.55
2018-06-08T06:09:06.193Z,20.77
2018-06-08T06:09:39.751Z,21.40
2018-06-08T06:10:13.304Z,19.62
2018-06-08T06:10:46.826Z,21.33
2018-06-08T06:11:20.403Z,20.23
2018-06-08T06:11:53.595Z,20.23
2018-06-08T06:12:27.128Z,19.25
2018-06-08T06:13:00.690Z,20.55
2018-06-08T06:13:34.293Z,18.25
2018-06-08T06:14:07.869Z,18.65
2018-06-08T06:14:41.374Z,21.57
2018-06-08T06:15:14.894Z,21.02
2018-06-08T06:15:48.441Z,23.10
2018-06-08T06:16:22.098Z,19.35
2018-06-08T06:16:55.609Z,23.85
2018-06-08T06:17:29.181Z,18.80
2018-06-08T06:18:03.236Z,18.37
2018-06-08T06:18:36.842Z,19.33
2018-06-08T06:19:10.395Z,19.10
2018-06-08T06:19:43.906Z,18.42
2018-06-08T06:20:17.091Z,19.10
2018-06-08T06:20:50.996Z,19.35
2018-06-08T06:21:24.558Z,20.35
2018-06-08T06:21:58.924Z,20.00
2018-06-08T06:22:34.370Z,20.22
2018-06-08T06:23:08.435Z,19.45
2018-06-08T06:23:42.811Z,19.92
2018-06-08T06:24:16.061Z,19.55
2018-06-08T06:24:49.669Z,19.77
2018-06-08T06:25:23.247Z,21.10
2018-06-08T06:25:56.773Z,22.50
2018-06-08T06:26:30.360Z,20.32
2018-06-08T06:27:03.965Z,19.80
2018-06-08T06:27:38.096Z,20.50
2018-06-08T06:28:11.654Z,18.95
2018-06-08T06:28:45.224Z,20.47
2018-06-08T06:29:18.809Z,19.75
2018-06-08T06:29:52.427Z,19.98
2018-06-08T06:30:26.023Z,19.73
2018-06-08T06:30:59.576Z,19.55
2018-06-08T06:31:33.147Z,19.20
2018-06-08T06:32:06.793Z,19.45
2018-06-08T06:32:40.360Z,18.97
2018-06-08T06:33:14.297Z,20.48
2018-06-08T06:33:47.864Z,19.15
2018-06-08T06:34:22.224Z,19.50
2018-06-08T06:34:56.513Z,20.08
2018-06-08T06:35:30.088Z,21.33
2018-06-08T06:36:03.735Z,20.10
2018-06-08T06:36:37.870Z,20.50
2018-06-08T06:37:11.469Z,18.90
2018-06-08T06:37:45.510Z,18.85
2018-06-08T06:38:19.052Z,19.07
2018-06-08T06:38:52.575Z,19.32
2018-06-08T06:39:26.112Z,20.70
2018-06-08T06:39:59.649Z,20.90
2018-06-08T06:40:33.923Z,20.50
2018-06-08T06:41:07.508Z,19.95
2018-06-08T06:41:41.036Z,18.90
2018-06-08T06:42:14.940Z,19.52
2018-06-08T06:42:48.468Z,20.65
2018-06-08T06:43:22.755Z,20.65
2018-06-08T06:43:59.412Z,21.35
2018-06-08T06:44:32.958Z,20.57
2018-06-08T06:45:06.758Z,20.88
2018-06-08T06:45:40.369Z,19.12
2018-06-08T06:46:13.899Z,18.57
2018-06-08T06:46:47.455Z,19.10
2018-06-08T06:47:21.016Z,18.57
2018-06-08T06:47:54.595Z,20.50
2018-06-08T06:48:28.584Z,22.38
2018-06-08T06:49:02.100Z,18.85
2018-06-08T06:49:35.626Z,21.00
2018-06-08T06:50:08.786Z,20.15
2018-06-08T06:50:42.911Z,20.03
2018-06-08T06:51:16.123Z,18.77
2018-06-08T06:51:49.727Z,19.62
2018-06-08T06:52:23.456Z,18.60
2018-06-08T06:52:58.344Z,20.32
2018-06-08T06:53:31.861Z,20.05
2018-06-08T06:54:06.207Z,18.70
2018-06-08T06:54:40.526Z,19.50
2018-06-08T06:55:14.072Z,17.87
2018-06-08T06:55:47.691Z,21.97
2018-06-08T06:56:21.985Z,18.32
2018-06-08T06:56:55.583Z,21.75
2018-06-08T06:57:29.146Z,19.52
2018-06-08T06:58:02.688Z,19.40
2018-06-08T06:58:36.293Z,19.13
2018-06-08T06:59:09.843Z,18.45
2018-06-08T06:59:43.575Z,17.60
2018-06-08T07:00:16.740Z,18.02
2018-06-08T07:00:50.285Z,17.95
2018-06-08T07:01:23.834Z,19.60
2018-06-08T07:01:57.348Z,23.45
2018-06-08T07:02:30.878Z,18.92
2018-06-08T07:03:04.450Z,22.42
2018-06-08T07:03:37.997Z,19.20
2018-06-08T07:04:12.483Z,18.73
2018-06-08T07:04:45.654Z,18.93
2018-06-08T07:05:19.182Z,18.23
2018-06-08T07:05:52.671Z,18.77
2018-06-08T07:06:26.167Z,18.20
2018-06-08T07:06:59.670Z,22.25
2018-06-08T07:07:33.198Z,18.98
2018-06-08T07:08:07.431Z,18.20
2018-06-08T07:08:40.986Z,19.57
2018-06-08T07:09:14.540Z,20.97
2018-06-08T07:09:48.189Z,23.30
2018-06-08T07:10:21.706Z,21.77
2018-06-08T07:10:55.300Z,19.12
2018-06-08T07:11:28.804Z,18.55
2018-06-08T07:12:02.355Z,19.07
2018-06-08T07:12:35.915Z,24.07
2018-06-08T07:13:09.520Z,18.40
2018-06-08T07:13:43.672Z,19.12
2018-06-08T07:14:17.223Z,20.55
2018-06-08T07:14:50.806Z,19.95
2018-06-08T07:15:24.573Z,18.82